• Join FlightAware (Why Join?)
  • Login
  • US Flag 
03:40AM EDT


 

Airport Tracker/Info


-or-


 

Live Flight TrackerFlight Track Log ✈ N654DL ✈ 23-Apr-2013 ✈ KATL - KMSY

Flight Track Log - Related Links

Times and Time Zones

All times are in EDT time to prevent confusion due to time zone crossing. See the N654DL flight status page for this flight to view local times or setup timezone preferences in your user account.

Time Position Orientation Groundspeed Altitude Reporting Facility
EDT Latitude Longitude Course Direction KTS MPH feet Rate Location/Type
04:32PM 33.6500 -84.3833 234° Southwest 173 199 2,400  Level Atlanta TRACON
04:33PM 33.6667 -84.3167 73° East 240 276 4,500 2,580 Climbing Atlanta TRACON
04:34PM 33.7333 -84.2667 32° Northeast 287 330 7,600 2,640 Climbing Atlanta TRACON
04:35PM 33.8001 -84.3597 270° West  Level FlightAware Approximate
04:35PM 33.8000 -84.3000 337° Northwest 292 336 9,800  Level Atlanta TRACON
04:36PM 33.8001 -84.4960 270° West  Level FlightAware Approximate
04:37PM 33.7701 -84.6215 234° Southwest  Level FlightAware Approximate
04:37PM 33.8103 -84.4214 276° West 288 331 11,100  Level Atlanta Center
04:38PM 33.8078 -84.5264 268° West 288 331 13,800 1,800 Climbing Atlanta Center
04:39PM 33.7742 -84.6161 246° West 288 331 14,800 1,260 Climbing Atlanta Center
04:40PM 33.7214 -84.7206 239° Southwest 318 366 16,400 1,800 Climbing Atlanta Center
04:41PM 33.6664 -84.8325 239° Southwest 364 419 18,500 2,220 Climbing Atlanta Center
04:42PM 33.6072 -84.9492 239° Southwest 409 471 20,900 2,280 Climbing Atlanta Center
04:43PM 33.5500 -85.0683 240° Southwest 415 478 23,100 1,920 Climbing Atlanta Center
04:44PM 33.4883 -85.1872 238° Southwest 420 483 24,800 1,680 Climbing Atlanta Center
04:45PM 33.4494 -85.3211 251° West 419 482 26,500 1,440 Climbing Atlanta Center
04:46PM 33.3836 -85.4244 233° Southwest 425 489 27,700 1,260 Climbing Atlanta Center
04:47PM 33.2947 -85.5225 223° Southwest 432 497 29,100 1,800 Climbing Atlanta Center
04:48PM 33.2017 -85.6203 221° Southwest 432 497 31,300 1,800 Climbing Atlanta Center
04:49PM 33.1108 -85.7178 222° Southwest 437 503 32,800 1,320 Climbing Atlanta Center
04:50PM 33.0111 -85.8272 223° Southwest 448 516 34,000 600 Climbing Atlanta Center
04:51PM 32.9303 -85.9272 226° Southwest 443 510 34,000  Level Atlanta Center
04:52PM 32.8411 -86.0267 223° Southwest 436 502 34,000  Level Atlanta Center
04:53PM 32.7558 -86.1258 224° Southwest 436 502 34,000  Level Atlanta Center
04:54PM 32.6667 -86.2250 223° Southwest 436 502 34,000  Level Atlanta Center
04:55PM 32.5792 -86.3289 225° Southwest 436 502 34,000  Level Atlanta Center
04:56PM 32.5067 -86.4058 222° Southwest 436 502 34,000  Level Atlanta Center
04:57PM 32.4144 -86.5239 227° Southwest 436 502 34,000  Level Atlanta Center
04:58PM 32.3247 -86.6269 224° Southwest 441 507 34,000  Level Atlanta Center
04:59PM 32.2225 -86.7247 219° Southwest 441 507 34,000  Level Atlanta Center
05:00PM 32.1347 -86.8250 224° Southwest 441 507 34,000  Level Atlanta Center
05:01PM 32.0447 -86.9228 223° Southwest 441 507 34,000  Level Atlanta Center
05:02PM 31.9589 -87.0203 224° Southwest 431 496 34,000  Level Atlanta Center
05:03PM 31.8711 -87.1153 223° Southwest 431 496 34,000  Level Atlanta Center
05:04PM 31.7853 -87.2100 223° Southwest 431 496 34,000  Level Atlanta Center
05:05PM 31.6992 -87.3072 224° Southwest 431 496 34,000  Level Atlanta Center
05:07PM 31.4842 -87.5378 222° Southwest 430 495 34,000  Level Houston Center
05:08PM 31.3975 -87.6336 223° Southwest 429 494 34,000  Level Houston Center
05:09PM 31.3094 -87.7297 223° Southwest 432 497 34,000  Level Houston Center
05:10PM 31.2186 -87.8286 223° Southwest 429 494 34,000  Level Houston Center
05:11PM 31.1314 -87.9236 223° Southwest 430 495 34,000  Level Houston Center
05:12PM 31.0253 -88.0369 222° Southwest 430 495 34,000  Level Houston Center
05:13PM 30.9364 -88.1317 222° Southwest 433 498 34,000 -660 Level Houston Center
05:14PM 30.8464 -88.2261 222° Southwest 434 499 32,700 -1,380 Descending Houston Center
05:15PM 30.7581 -88.3219 223° Southwest 435 501 31,200 -1,500 Descending Houston Center
05:16PM 30.6867 -88.4414 235° Southwest 437 503 29,700 -1,500 Descending Houston Center
05:17PM 30.6319 -88.5667 243° Southwest 434 499 28,200 -1,920 Descending Houston Center
05:18PM 30.5756 -88.6944 243° Southwest 441 507 25,800 -2,760 Descending Houston Center
05:20PM 30.5186 -88.8214 243° Southwest 444 511 22,500 -1,860 Descending Houston Center
05:21PM 30.4544 -88.9681 243° Southwest 441 507 22,000 -420 Descending Houston Center
05:22PM 30.3989 -89.0933 243° Southwest 439 505 21,700 -1,020 Descending Houston Center
05:23PM 30.3531 -89.2175 247° West 424 488 19,900 -2,400 Descending Houston Center
05:23PM 30.3222 -89.3078 248° West 414 476 17,800 -3,240 Descending Houston Center
05:24PM 30.3014 -89.3642 247° West 404 465 16,600 -2,760 Descending Houston Center
05:25PM 30.2575 -89.4794 246° West 388 447 13,900 -2,640 Descending Houston Center
05:26PM 30.2344 -89.5961 257° West 376 433 11,300 -1,920 Descending Houston Center
05:27PM 30.2269 -89.7156 266° West 365 420 9,900 -1,260 Descending Houston Center
05:28PM 30.2208 -89.8086 266° West 290 334 8,800 -1,500 Descending Houston Center
05:29PM 30.2156 -89.9003 266° West 280 322 7,000 -1,800 Descending Houston Center
05:30PM 30.2086 -90.0017 265° West 269 310 5,000 -1,380 Descending Houston Center
05:31PM 30.2047 -90.0753 267° West 266 306 4,000 -1,020 Descending Houston Center
05:32PM 30.1942 -90.1464 260° West 206 237 3,000 -960 Descending Houston Center
05:33PM 30.1514 -90.1819 216° Southwest 179 206 2,100 -900 Descending Houston Center